createdAt,value
2019-02-18T00:00:52.042Z,7.23
2019-02-18T00:03:21.479Z,7.33
2019-02-18T00:05:50.919Z,7.20
2019-02-18T00:08:20.349Z,7.03
2019-02-18T00:10:49.782Z,7.87
2019-02-18T00:13:19.227Z,7.77
2019-02-18T00:15:51.326Z,7.37
2019-02-18T00:18:20.762Z,7.40
2019-02-18T00:20:50.195Z,7.07
2019-02-18T00:23:19.638Z,7.40
2019-02-18T00:25:50.603Z,7.90
2019-02-18T00:28:20.042Z,7.50
2019-02-18T00:30:49.471Z,7.13
2019-02-18T00:33:18.913Z,6.67
2019-02-18T00:35:48.341Z,7.23
2019-02-18T00:38:17.853Z,7.33
2019-02-18T00:40:47.275Z,7.10
2019-02-18T00:43:16.717Z,7.37
2019-02-18T00:45:48.545Z,7.40
2019-02-18T00:48:17.986Z,7.80
2019-02-18T00:50:47.411Z,6.83
2019-02-18T00:53:16.853Z,7.77
2019-02-18T00:55:46.276Z,7.17
2019-02-18T00:58:15.712Z,7.93
2019-02-18T01:00:45.146Z,7.27
2019-02-18T01:03:14.586Z,6.90
2019-02-18T01:05:44.014Z,7.67
2019-02-18T01:08:13.454Z,7.10
2019-02-18T01:10:42.874Z,6.83
2019-02-18T01:13:12.381Z,6.57
2019-02-18T01:15:41.813Z,7.40
2019-02-18T01:18:11.248Z,6.80
2019-02-18T01:20:40.680Z,6.87
2019-02-18T01:23:10.113Z,6.53
2019-02-18T01:25:39.570Z,6.87
2019-02-18T01:28:08.994Z,7.40
2019-02-18T01:30:38.416Z,6.80
2019-02-18T01:33:07.860Z,6.77
2019-02-18T01:35:37.278Z,6.60
2019-02-18T01:38:06.715Z,7.03
2019-02-18T01:40:36.144Z,7.00
2019-02-18T01:43:06.150Z,7.03
2019-02-18T01:45:35.575Z,7.10
2019-02-18T01:48:05.083Z,6.40
2019-02-18T01:50:34.508Z,7.43
2019-02-18T01:53:03.953Z,6.90
2019-02-18T01:55:33.376Z,7.17
2019-02-18T01:58:02.812Z,6.33
2019-02-18T02:00:32.237Z,6.40
2019-02-18T02:03:01.678Z,7.13
2019-02-18T02:05:31.099Z,7.27
2019-02-18T02:08:00.541Z,6.90
2019-02-18T02:10:29.967Z,6.53
2019-02-18T02:13:28.982Z,6.57
2019-02-18T02:15:59.623Z,6.53
2019-02-18T02:18:29.060Z,6.80
2019-02-18T02:20:58.520Z,6.97
2019-02-18T02:23:27.925Z,6.73
2019-02-18T02:25:57.367Z,7.43
2019-02-18T02:28:26.791Z,7.47
2019-02-18T02:30:56.245Z,6.90
2019-02-18T02:33:25.657Z,7.47
2019-02-18T02:35:55.099Z,7.03
2019-02-18T02:38:24.533Z,7.20
2019-02-18T02:40:53.980Z,7.13
2019-02-18T02:43:23.408Z,6.40
2019-02-18T02:45:52.837Z,7.13
2019-02-18T02:48:22.315Z,7.27
2019-02-18T02:50:51.778Z,7.67
2019-02-18T02:53:21.203Z,7.50
2019-02-18T02:55:50.641Z,6.53
2019-02-18T02:58:20.074Z,7.07
2019-02-18T03:00:49.513Z,7.00
2019-02-18T03:03:18.940Z,7.00
2019-02-18T03:05:48.375Z,6.70
2019-02-18T03:08:20.558Z,7.33
2019-02-18T03:10:48.960Z,6.43
2019-02-18T03:13:18.387Z,6.83
2019-02-18T03:15:47.831Z,6.47
2019-02-18T03:18:17.260Z,6.90
2019-02-18T03:20:46.704Z,6.97
2019-02-18T03:23:16.142Z,7.57
2019-02-18T03:25:47.985Z,6.47
2019-02-18T03:28:49.311Z,6.07
2019-02-18T03:31:23.386Z,6.17
2019-02-18T03:33:57.521Z,5.90
2019-02-18T03:36:26.965Z,5.73
2019-02-18T03:38:56.394Z,6.37
2019-02-18T03:41:25.907Z,6.40
2019-02-18T03:43:55.336Z,6.17
2019-02-18T03:46:24.776Z,6.63
2019-02-18T03:48:54.207Z,6.97
2019-02-18T03:51:23.639Z,6.70
2019-02-18T03:53:53.069Z,6.93
2019-02-18T03:56:22.507Z,6.50
2019-02-18T03:58:51.943Z,6.53
2019-02-18T04:01:21.381Z,6.47
2019-02-18T04:03:50.809Z,5.93
2019-02-18T04:06:20.243Z,6.03
2019-02-18T04:08:49.683Z,6.33
2019-02-18T04:11:19.127Z,6.70
2019-02-18T04:13:48.546Z,6.37
2019-02-18T04:16:17.985Z,6.87
2019-02-18T04:18:47.479Z,6.70
2019-02-18T04:21:16.920Z,6.67
2019-02-18T04:23:46.352Z,6.80
2019-02-18T04:26:15.794Z,6.57
2019-02-18T04:28:45.209Z,6.50
2019-02-18T04:31:14.642Z,6.73
2019-02-18T04:33:44.069Z,6.57
2019-02-18T04:36:13.503Z,6.33
2019-02-18T04:38:53.584Z,7.67
2019-02-18T04:41:14.102Z,6.67
2019-02-18T04:43:43.523Z,7.10
2019-02-18T04:46:12.965Z,6.00
2019-02-18T04:48:42.396Z,6.47
2019-02-18T04:51:11.837Z,6.83
2019-02-18T04:53:41.261Z,6.57
2019-02-18T04:56:10.706Z,6.57
2019-02-18T04:58:40.137Z,6.50
2019-02-18T05:01:09.577Z,6.77
2019-02-18T05:03:39.021Z,6.07
2019-02-18T05:06:08.457Z,6.30
2019-02-18T05:08:37.890Z,6.33
2019-02-18T05:11:07.331Z,7.03
2019-02-18T05:13:36.761Z,6.63
2019-02-18T05:16:06.195Z,7.03
2019-02-18T05:18:35.621Z,6.90
2019-02-18T05:21:05.067Z,6.83
2019-02-18T05:23:34.493Z,6.90
2019-02-18T05:26:03.935Z,5.97
2019-02-18T05:28:33.362Z,6.33
2019-02-18T05:31:03.097Z,6.97
2019-02-18T05:33:32.503Z,7.30
2019-02-18T05:36:01.943Z,6.73
2019-02-18T05:38:31.375Z,5.93
2019-02-18T05:41:00.841Z,6.40
2019-02-18T05:43:30.264Z,7.13
2019-02-18T05:45:59.700Z,7.43
2019-02-18T05:48:29.136Z,6.30
2019-02-18T05:50:58.572Z,6.33
2019-02-18T05:53:27.997Z,7.43
2019-02-18T05:55:57.428Z,6.87
2019-02-18T05:58:26.870Z,6.60
2019-02-18T06:00:56.305Z,7.40
2019-02-18T06:03:25.736Z,7.00
2019-02-18T06:05:55.162Z,7.07
2019-02-18T06:08:24.596Z,6.43
2019-02-18T06:10:54.017Z,6.20
2019-02-18T06:13:23.457Z,6.70
2019-02-18T06:15:52.882Z,6.63
2019-02-18T06:18:22.328Z,6.73
2019-02-18T06:20:51.836Z,7.10
2019-02-18T06:23:21.275Z,7.03
2019-02-18T06:25:50.712Z,7.10
2019-02-18T06:28:20.159Z,7.07
2019-02-18T06:30:49.590Z,7.17
2019-02-18T06:33:19.028Z,6.37
2019-02-18T06:35:48.472Z,7.40
2019-02-18T06:38:18.742Z,6.90
2019-02-18T06:40:48.178Z,7.37
2019-02-18T06:43:17.613Z,7.30
2019-02-18T06:45:48.690Z,6.33
2019-02-18T06:48:25.699Z,6.63
2019-02-18T06:50:55.128Z,6.67
2019-02-18T06:53:24.569Z,6.63
2019-02-18T06:55:54.010Z,6.93
2019-02-18T06:58:30.496Z,6.93
2019-02-18T07:01:04.260Z,7.93
2019-02-18T07:03:36.152Z,7.70
2019-02-18T07:06:10.234Z,6.33
2019-02-18T07:08:41.325Z,7.30
2019-02-18T07:11:21.335Z,6.80
2019-02-18T07:13:51.546Z,8.00
2019-02-18T07:16:20.983Z,7.07
2019-02-18T07:18:50.436Z,6.70
2019-02-18T07:21:19.877Z,7.03
2019-02-18T07:23:49.321Z,6.93
2019-02-18T07:26:18.851Z,6.93
2019-02-18T07:28:48.274Z,6.90
2019-02-18T07:31:17.698Z,7.00
2019-02-18T07:33:47.136Z,7.07
2019-02-18T07:36:16.567Z,7.13
2019-02-18T07:38:46.010Z,6.87
2019-02-18T07:41:15.439Z,7.07
2019-02-18T07:43:44.878Z,7.33
2019-02-18T07:46:14.306Z,7.00
2019-02-18T07:48:43.745Z,7.13
2019-02-18T07:51:13.170Z,7.40
2019-02-18T07:53:42.615Z,7.73
2019-02-18T07:56:12.052Z,8.03
2019-02-18T07:58:41.482Z,9.23
2019-02-18T08:01:10.921Z,8.47
2019-02-18T08:03:40.373Z,8.20
2019-02-18T08:06:09.803Z,7.90
2019-02-18T08:08:39.247Z,8.40
2019-02-18T08:11:08.682Z,7.63
2019-02-18T08:13:38.118Z,7.53
2019-02-18T08:16:07.551Z,7.40
2019-02-18T08:18:36.986Z,7.47
2019-02-18T08:21:06.180Z,8.23
2019-02-18T08:23:35.618Z,8.20
2019-02-18T08:26:05.825Z,8.17
2019-02-18T08:28:35.253Z,8.10
2019-02-18T08:31:04.706Z,8.23
2019-02-18T08:33:34.138Z,8.53
2019-02-18T08:36:03.581Z,7.67
2019-02-18T08:38:33.009Z,7.63
2019-02-18T08:41:02.460Z,7.87
2019-02-18T08:43:31.882Z,7.97
2019-02-18T08:46:01.332Z,7.17
2019-02-18T08:48:30.761Z,7.93
2019-02-18T08:51:00.207Z,8.63
2019-02-18T08:53:32.445Z,7.53
2019-02-18T08:56:01.884Z,7.87
2019-02-18T08:58:31.305Z,6.57
2019-02-18T09:01:02.881Z,7.00
2019-02-18T09:03:31.895Z,5.87
2019-02-18T09:06:01.336Z,6.90
2019-02-18T09:08:30.766Z,6.30
2019-02-18T09:11:00.203Z,6.67
2019-02-18T09:13:29.632Z,5.97
2019-02-18T09:16:00.384Z,6.10
2019-02-18T09:18:30.077Z,5.93
2019-02-18T09:20:59.512Z,5.23
2019-02-18T09:23:33.294Z,5.53
2019-02-18T09:26:02.820Z,6.10
2019-02-18T09:28:32.245Z,5.73
2019-02-18T09:31:01.682Z,6.40
2019-02-18T09:33:31.106Z,6.53
2019-02-18T09:36:00.548Z,6.43
2019-02-18T09:38:29.974Z,6.23
2019-02-18T09:40:59.437Z,6.33
2019-02-18T09:43:28.850Z,6.23
2019-02-18T09:45:58.336Z,6.67
2019-02-18T09:48:27.719Z,6.60
2019-02-18T09:50:57.155Z,5.93
2019-02-18T09:53:26.581Z,6.33
2019-02-18T09:55:56.018Z,5.77
2019-02-18T09:58:25.445Z,6.13
2019-02-18T10:00:54.877Z,5.63
2019-02-18T10:03:31.525Z,6.07
2019-02-18T10:05:55.468Z,6.07
2019-02-18T10:08:24.896Z,5.80
2019-02-18T10:10:56.082Z,6.20
2019-02-18T10:13:25.485Z,5.57
2019-02-18T10:15:54.931Z,5.50
2019-02-18T10:18:24.358Z,5.67
2019-02-18T10:20:54.051Z,5.60
2019-02-18T10:23:23.689Z,5.50
2019-02-18T10:25:53.156Z,5.50
2019-02-18T10:28:22.582Z,5.83
2019-02-18T10:30:52.032Z,6.27
2019-02-18T10:33:21.459Z,5.80
2019-02-18T10:35:50.904Z,6.03
2019-02-18T10:38:20.326Z,6.53
2019-02-18T10:40:49.759Z,6.33
2019-02-18T10:43:19.184Z,5.87
2019-02-18T10:45:48.633Z,6.20
2019-02-18T10:48:18.055Z,6.17
2019-02-18T10:50:47.485Z,6.20
2019-02-18T10:53:16.933Z,6.47
2019-02-18T10:55:46.359Z,6.30
2019-02-18T10:58:15.805Z,6.77
2019-02-18T11:00:45.237Z,6.03
2019-02-18T11:03:14.679Z,7.73
2019-02-18T11:05:44.103Z,6.93
2019-02-18T11:08:13.544Z,6.90
2019-02-18T11:10:42.971Z,7.60
2019-02-18T11:13:12.408Z,7.33
2019-02-18T11:15:41.840Z,7.03
2019-02-18T11:18:11.278Z,8.43
2019-02-18T11:20:40.716Z,7.33
2019-02-18T11:23:10.155Z,7.03
2019-02-18T11:25:39.598Z,12.40
2019-02-18T11:28:09.034Z,6.80
2019-02-18T11:30:39.265Z,8.03
2019-02-18T11:33:08.878Z,7.90
2019-02-18T11:35:38.331Z,7.57
2019-02-18T11:38:07.765Z,7.37
2019-02-18T11:40:37.465Z,6.37
2019-02-18T11:43:06.916Z,6.43
2019-02-18T11:45:36.349Z,6.27
2019-02-18T11:48:05.794Z,6.47
2019-02-18T11:50:35.224Z,5.90
2019-02-18T11:53:04.664Z,5.83
2019-02-18T11:55:34.092Z,5.20
2019-02-18T11:58:03.538Z,5.83
2019-02-18T12:00:33.043Z,5.53
2019-02-18T12:03:08.487Z,5.97
2019-02-18T12:05:33.654Z,6.57
2019-02-18T12:08:03.381Z,6.37
2019-02-18T12:10:32.813Z,5.90
2019-02-18T12:13:02.258Z,6.40
2019-02-18T12:15:31.684Z,6.00
2019-02-18T12:18:01.438Z,5.87
2019-02-18T12:20:30.869Z,6.60
2019-02-18T12:23:00.311Z,6.17
2019-02-18T12:25:29.742Z,6.40
2019-02-18T12:27:59.195Z,6.80
2019-02-18T12:30:28.623Z,6.70
2019-02-18T12:32:58.077Z,6.57
2019-02-18T12:35:30.911Z,7.30
2019-02-18T12:37:58.698Z,6.13
2019-02-18T12:40:28.144Z,8.03
2019-02-18T12:42:59.132Z,7.30
2019-02-18T12:45:28.555Z,6.93
2019-02-18T12:47:58.005Z,6.67
2019-02-18T12:50:27.445Z,6.23
2019-02-18T12:52:57.076Z,7.00
2019-02-18T12:55:26.763Z,7.10
2019-02-18T12:57:56.359Z,6.63
2019-02-18T13:00:25.796Z,7.03
2019-02-18T13:02:55.241Z,6.40
2019-02-18T13:05:24.685Z,7.30
2019-02-18T13:07:54.141Z,6.27
2019-02-18T13:10:34.498Z,6.40
2019-02-18T13:12:55.198Z,6.80
2019-02-18T13:15:24.660Z,7.10
2019-02-18T13:17:54.414Z,7.13
2019-02-18T13:20:23.856Z,9.63
2019-02-18T13:22:53.302Z,14.57
2019-02-18T13:25:22.744Z,7.60
2019-02-18T13:27:52.189Z,8.23
2019-02-18T13:30:22.010Z,12.00
2019-02-18T13:32:51.453Z,11.10
2019-02-18T13:35:20.933Z,9.87
2019-02-18T13:37:50.364Z,7.53
2019-02-18T13:40:19.805Z,7.70
2019-02-18T13:42:49.245Z,7.00
2019-02-18T13:45:18.698Z,7.50
2019-02-18T13:47:48.134Z,7.30
2019-02-18T13:50:17.585Z,9.10
2019-02-18T13:52:47.295Z,7.80
2019-02-18T13:55:16.751Z,7.13
2019-02-18T13:57:46.215Z,9.17
2019-02-18T14:00:22.955Z,11.83
2019-02-18T14:02:52.463Z,9.57
2019-02-18T14:05:22.549Z,11.43
2019-02-18T14:07:51.981Z,17.87
2019-02-18T14:10:22.021Z,12.90
2019-02-18T14:12:51.470Z,14.40
2019-02-18T14:15:21.406Z,8.00
2019-02-18T14:17:50.849Z,9.60
2019-02-18T14:20:20.363Z,5.93
2019-02-18T14:22:49.811Z,5.93
2019-02-18T14:25:19.257Z,6.17
2019-02-18T14:27:48.707Z,5.80
2019-02-18T14:30:19.184Z,6.43
2019-02-18T14:32:48.619Z,5.50
2019-02-18T14:35:18.907Z,5.10
2019-02-18T14:37:49.370Z,5.77
2019-02-18T14:40:20.287Z,5.20
2019-02-18T14:42:49.719Z,5.03
2019-02-18T14:45:19.165Z,6.40
2019-02-18T14:47:48.605Z,8.03
2019-02-18T14:50:19.092Z,6.53
2019-02-18T14:52:48.878Z,5.43
2019-02-18T14:55:18.328Z,5.47
2019-02-18T14:57:48.259Z,5.57
2019-02-18T15:00:24.021Z,5.07
2019-02-18T15:02:56.264Z,4.33
2019-02-18T15:05:27.233Z,5.03
2019-02-18T15:07:56.731Z,4.27
2019-02-18T15:10:26.180Z,4.63
2019-02-18T15:12:55.688Z,5.60
2019-02-18T15:15:25.140Z,5.43
2019-02-18T15:17:54.576Z,5.30
2019-02-18T15:20:24.303Z,5.20
2019-02-18T15:22:53.743Z,4.70
2019-02-18T15:25:23.201Z,6.37
2019-02-18T15:27:52.639Z,7.60
2019-02-18T15:30:22.439Z,7.87
2019-02-18T15:32:51.876Z,7.57
2019-02-18T15:35:21.334Z,9.00
2019-02-18T15:37:50.783Z,8.80
2019-02-18T15:40:20.878Z,11.90
2019-02-18T15:42:50.318Z,8.53
2019-02-18T15:45:19.764Z,7.57
2019-02-18T15:47:49.208Z,7.83
2019-02-18T15:50:19.209Z,7.93
2019-02-18T15:52:48.646Z,6.83
2019-02-18T15:55:18.091Z,6.63
2019-02-18T15:57:47.526Z,7.70
2019-02-18T16:00:25.768Z,7.80
2019-02-18T16:02:55.203Z,6.83
2019-02-18T16:05:24.723Z,7.53
2019-02-18T16:07:54.442Z,8.03
2019-02-18T16:10:23.893Z,6.60
2019-02-18T16:12:53.410Z,6.30
2019-02-18T16:15:22.857Z,5.20
2019-02-18T16:17:52.313Z,6.77
2019-02-18T16:20:21.750Z,5.23
2019-02-18T16:22:51.193Z,4.77
2019-02-18T16:25:23.955Z,4.83
2019-02-18T16:27:53.398Z,5.00
2019-02-18T16:30:23.214Z,4.10
2019-02-18T16:32:52.658Z,4.77
2019-02-18T16:35:22.124Z,4.83
2019-02-18T16:37:51.565Z,4.87
2019-02-18T16:40:21.388Z,4.63
2019-02-18T16:42:58.913Z,4.40
2019-02-18T16:45:22.000Z,4.20
2019-02-18T16:47:51.434Z,4.27
2019-02-18T16:50:20.892Z,4.23
2019-02-18T16:52:50.405Z,3.67
2019-02-18T16:55:19.832Z,4.53
2019-02-18T16:57:49.284Z,3.80
2019-02-18T17:00:21.068Z,4.03
2019-02-18T17:02:51.064Z,4.30
2019-02-18T17:05:20.798Z,4.30
2019-02-18T17:07:50.240Z,4.63
2019-02-18T17:10:19.688Z,5.67
2019-02-18T17:12:49.409Z,6.20
2019-02-18T17:15:18.856Z,5.47
2019-02-18T17:17:48.299Z,4.83
2019-02-18T17:20:17.735Z,4.20
2019-02-18T17:22:47.189Z,3.77
2019-02-18T17:25:16.619Z,4.23
2019-02-18T17:27:46.550Z,4.33
2019-02-18T17:30:17.221Z,3.90
2019-02-18T17:32:46.670Z,4.73
2019-02-18T17:35:16.393Z,5.13
2019-02-18T17:37:45.837Z,5.53
2019-02-18T17:40:15.714Z,5.07
2019-02-18T17:42:45.428Z,4.97
2019-02-18T17:45:17.369Z,6.50
2019-02-18T17:47:46.890Z,8.70
2019-02-18T17:50:17.531Z,7.53
2019-02-18T17:52:47.554Z,8.40
2019-02-18T17:55:21.223Z,8.70
2019-02-18T17:57:50.663Z,7.87
2019-02-18T18:00:37.971Z,6.43
2019-02-18T18:03:07.491Z,5.23
2019-02-18T18:05:36.925Z,5.03
2019-02-18T18:08:06.370Z,5.13
2019-02-18T18:10:35.802Z,5.13
2019-02-18T18:13:05.257Z,4.70
2019-02-18T18:15:34.687Z,4.90
2019-02-18T18:18:04.209Z,4.83
2019-02-18T18:20:33.624Z,5.10
2019-02-18T18:23:03.071Z,5.33
2019-02-18T18:25:32.507Z,4.97
2019-02-18T18:28:01.960Z,4.53
2019-02-18T18:30:31.396Z,5.03
2019-02-18T18:33:00.846Z,4.93
2019-02-18T18:35:30.270Z,4.93
2019-02-18T18:37:59.714Z,5.40
2019-02-18T18:40:29.154Z,4.90
2019-02-18T18:42:58.592Z,5.27
2019-02-18T18:45:28.028Z,5.10
2019-02-18T18:47:57.464Z,5.00
2019-02-18T18:50:27.176Z,5.03
2019-02-18T18:52:56.622Z,5.10
2019-02-18T18:55:26.054Z,5.13
2019-02-18T18:57:55.503Z,5.07
2019-02-18T19:00:26.173Z,5.40
2019-02-18T19:02:55.605Z,5.20
2019-02-18T19:05:25.273Z,4.97
2019-02-18T19:07:54.713Z,4.73
2019-02-18T19:10:24.143Z,5.67
2019-02-18T19:12:53.588Z,5.03
2019-02-18T19:15:23.017Z,6.07
2019-02-18T19:17:52.454Z,5.73
2019-02-18T19:20:21.883Z,5.30
2019-02-18T19:22:51.326Z,5.00
2019-02-18T19:25:20.793Z,5.03
2019-02-18T19:27:50.189Z,5.03
2019-02-18T19:30:29.220Z,5.23
2019-02-18T19:32:58.660Z,4.67
2019-02-18T19:35:28.086Z,5.67
2019-02-18T19:37:57.525Z,5.50
2019-02-18T19:40:26.953Z,5.43
2019-02-18T19:42:56.395Z,5.77
2019-02-18T19:45:26.368Z,6.53
2019-02-18T19:47:55.828Z,6.23
2019-02-18T19:50:25.308Z,7.03
2019-02-18T19:52:54.697Z,6.63
2019-02-18T19:55:25.471Z,6.67
2019-02-18T19:57:54.958Z,6.40
2019-02-18T20:00:24.475Z,6.50
2019-02-18T20:02:53.939Z,6.57
2019-02-18T20:05:23.384Z,6.43
2019-02-18T20:07:52.874Z,7.13
2019-02-18T20:10:22.332Z,6.00
2019-02-18T20:12:52.236Z,6.97
2019-02-18T20:15:21.675Z,6.50
2019-02-18T20:17:51.105Z,6.43
2019-02-18T20:20:20.543Z,6.90
2019-02-18T20:22:49.980Z,5.90
2019-02-18T20:25:19.410Z,7.47
2019-02-18T20:27:49.210Z,6.93
2019-02-18T20:30:19.090Z,7.37
2019-02-18T20:32:48.520Z,7.13
2019-02-18T20:35:17.973Z,6.90
2019-02-18T20:37:47.467Z,6.53
2019-02-18T20:40:16.906Z,6.50
2019-02-18T20:42:46.896Z,6.50
2019-02-18T20:45:16.336Z,7.63
2019-02-18T20:47:45.769Z,7.83
2019-02-18T20:50:16.442Z,8.33
2019-02-18T20:52:45.869Z,7.50
2019-02-18T20:55:16.346Z,7.10
2019-02-18T20:57:45.770Z,7.63
2019-02-18T21:00:20.933Z,7.37
2019-02-18T21:02:50.362Z,7.87
2019-02-18T21:05:19.870Z,7.63
2019-02-18T21:07:49.299Z,8.77
2019-02-18T21:10:21.080Z,8.60
2019-02-18T21:12:50.494Z,9.13
2019-02-18T21:15:20.009Z,8.27
2019-02-18T21:17:49.434Z,8.23
2019-02-18T21:20:18.872Z,8.53
2019-02-18T21:22:48.687Z,7.73
2019-02-18T21:25:18.117Z,8.47
2019-02-18T21:27:47.572Z,8.73
2019-02-18T21:30:19.760Z,8.17
2019-02-18T21:32:49.189Z,7.40
2019-02-18T21:35:18.637Z,7.50
2019-02-18T21:37:48.072Z,8.00
2019-02-18T21:40:17.499Z,8.23
2019-02-18T21:42:46.932Z,7.80
2019-02-18T21:45:17.072Z,7.60
2019-02-18T21:47:46.485Z,7.90
2019-02-18T21:50:15.927Z,8.97
2019-02-18T21:52:45.355Z,7.53
2019-02-18T21:55:15.139Z,7.83
2019-02-18T21:57:44.562Z,8.03
2019-02-18T22:00:24.414Z,7.33
2019-02-18T22:02:53.845Z,7.80
2019-02-18T22:05:23.286Z,7.60
2019-02-18T22:07:53.279Z,8.23
2019-02-18T22:10:22.718Z,7.43
2019-02-18T22:12:52.151Z,7.43
2019-02-18T22:15:21.597Z,7.97
2019-02-18T22:17:51.024Z,7.30
2019-02-18T22:20:20.949Z,7.80
2019-02-18T22:22:50.380Z,7.50
2019-02-18T22:25:20.158Z,8.10
2019-02-18T22:27:49.592Z,7.67
2019-02-18T22:30:19.792Z,8.00
2019-02-18T22:32:49.220Z,8.07
2019-02-18T22:35:19.045Z,7.30
2019-02-18T22:37:48.469Z,7.90
2019-02-18T22:40:17.911Z,7.37
2019-02-18T22:42:47.339Z,7.77
2019-02-18T22:45:16.844Z,7.27
2019-02-18T22:47:46.276Z,8.20
2019-02-18T22:50:15.979Z,7.13
2019-02-18T22:52:45.413Z,7.67
2019-02-18T22:55:14.848Z,7.77
2019-02-18T22:57:44.285Z,7.57
2019-02-18T23:00:43.488Z,7.60
2019-02-18T23:03:13.160Z,7.33
2019-02-18T23:05:42.584Z,7.27
2019-02-18T23:08:12.028Z,8.27
2019-02-18T23:10:41.688Z,7.77
2019-02-18T23:13:11.125Z,7.90
2019-02-18T23:15:40.737Z,7.97
2019-02-18T23:18:10.171Z,7.70
2019-02-18T23:20:39.599Z,7.60
2019-02-18T23:23:09.042Z,7.73
2019-02-18T23:25:38.472Z,7.77
2019-02-18T23:28:07.970Z,7.40
2019-02-18T23:30:37.684Z,7.13
2019-02-18T23:33:07.190Z,6.93
2019-02-18T23:35:36.633Z,7.93
2019-02-18T23:38:06.077Z,7.37
2019-02-18T23:40:36.067Z,7.10
2019-02-18T23:43:05.643Z,7.07
2019-02-18T23:45:35.068Z,7.97
2019-02-18T23:48:04.511Z,7.57
2019-02-18T23:50:33.937Z,8.13
2019-02-18T23:53:03.383Z,7.90
2019-02-18T23:55:32.815Z,7.93
2019-02-18T23:58:02.271Z,7.50
